Time;durP1;ratioP1;P1;durP2;ratioP2;P2;SDS_P1;SDS_P2;PMS_P1;PMS_P2;Temp;Humidity;BMP_temperature;BMP_pressure;BME280_temperature;BME280_humidity;BME280_pressure;Samples;Min_cycle;Max_cycle;Signal;HPM_P1;HPM_P2
2022/04/28 00:00:44;;;;;;;0.47;0.38;;;7.50;99.90;;;;;;5107525;28;20224;-84
2022/04/28 00:03:12;;;;;;;0.50;0.50;;;8.60;99.70;;;;;;5106757;28;20198;-83
2022/04/28 00:05:39;;;;;;;0.30;0.10;;;7.50;99.90;;;;;;5106851;28;20202;-83
2022/04/28 00:08:07;;;;;;;1.13;0.88;;;7.60;99.00;;;;;;5107059;28;20201;-83
2022/04/28 00:10:36;;;;;;;0.30;0.20;;;7.70;99.40;;;;;;5106435;28;20205;-83
2022/04/28 00:13:05;;;;;;;0.40;0.30;;;7.70;99.40;;;;;;5106753;28;20214;-84
2022/04/28 00:15:35;;;;;;;0.63;0.63;;;7.80;98.90;;;;;;5107129;28;20206;-84
2022/04/28 00:18:03;;;;;;;1.05;0.60;;;7.80;99.00;;;;;;5111051;28;20186;-84
2022/04/28 00:20:30;;;;;;;0.98;0.95;;;7.80;99.10;;;;;;5111446;28;20189;-84
2022/04/28 00:22:57;;;;;;;0.30;0.30;;;7.80;98.60;;;;;;5110826;28;20681;-84
2022/04/28 00:25:26;;;;;;;0.43;0.43;;;7.90;98.20;;;;;;5110957;28;20229;-83
2022/04/28 00:27:54;;;;;;;0.30;0.20;;;7.90;98.20;;;;;;5110112;28;20589;-84
2022/04/28 00:30:21;;;;;;;0.73;0.73;;;7.90;97.80;;;;;;5111061;28;20202;-83
2022/04/28 00:32:51;;;;;;;1.67;0.63;;;7.90;97.60;;;;;;5110684;28;20583;-83
2022/04/28 00:35:18;;;;;;;0.40;0.30;;;8.00;97.70;;;;;;5110647;28;20206;-83
2022/04/28 00:37:47;;;;;;;0.35;0.35;;;8.10;97.50;;;;;;5110351;28;20221;-83
2022/04/28 00:40:14;;;;;;;0.60;0.60;;;8.20;96.60;;;;;;5109544;28;20251;-85
2022/04/28 00:42:41;;;;;;;0.50;0.40;;;8.20;96.20;;;;;;5109943;28;20218;-84
2022/04/28 00:45:09;;;;;;;0.30;0.20;;;8.30;96.00;;;;;;5110154;28;20584;-84
2022/04/28 00:50:39;;;;;;;0.30;0.25;;;8.50;95.50;;;;;;5063010;28;20224;-84
2022/04/28 00:53:10;;;;;;;0.82;0.57;;;8.50;95.10;;;;;;5097022;28;20770;-84
2022/04/28 00:55:37;;;;;;;1.15;0.77;;;8.50;95.00;;;;;;5110298;28;20592;-83
2022/04/28 00:58:04;;;;;;;0.75;0.73;;;8.30;95.40;;;;;;5110357;28;20216;-84
2022/04/28 01:00:31;;;;;;;0.63;0.55;;;8.40;95.40;;;;;;5109989;28;20619;-84
2022/04/28 01:02:58;;;;;;;0.38;0.25;;;8.40;95.40;;;;;;5109451;28;20190;-83
2022/04/28 01:05:26;;;;;;;1.35;0.73;;;8.40;95.40;;;;;;5108429;28;20699;-83
2022/04/28 01:07:54;;;;;;;0.80;0.80;;;8.40;95.60;;;;;;5109872;28;20206;-84
2022/04/28 01:10:21;;;;;;;0.30;0.20;;;8.40;95.80;;;;;;5110329;28;20190;-84
2022/04/28 01:12:50;;;;;;;0.70;0.40;;;8.40;95.40;;;;;;5094084;28;20210;-83
2022/04/28 01:15:18;;;;;;;0.30;0.30;;;8.40;95.40;;;;;;5108852;28;20293;-83
2022/04/28 01:17:45;;;;;;;0.77;0.43;;;;;;;;;;5108888;28;20182;-84
2022/04/28 01:20:12;;;;;;;0.50;0.40;;;8.20;95.60;;;;;;5109589;28;20201;-83
2022/04/28 01:22:43;;;;;;;0.30;0.20;;;8.20;96.30;;;;;;5109543;28;20196;-84
2022/04/28 01:25:11;;;;;;;1.23;0.40;;;8.20;96.10;;;;;;5109780;28;20259;-83
2022/04/28 01:27:40;;;;;;;0.88;0.80;;;8.10;96.50;;;;;;5109378;28;20218;-84
2022/04/28 01:30:14;;;;;;;0.40;0.20;;;8.00;96.90;;;;;;5108509;28;20201;-84
2022/04/28 01:32:42;;;;;;;0.40;0.30;;;7.90;96.60;;;;;;5106953;28;20248;-83
2022/04/28 01:35:10;;;;;;;0.40;0.30;;;8.00;96.90;;;;;;5109714;28;20194;-82
2022/04/28 01:37:37;;;;;;;0.30;0.20;;;8.00;96.60;;;;;;5109585;28;20306;-84
2022/04/28 01:40:11;;;;;;;0.40;0.30;;;8.00;96.60;;;;;;5109810;28;20273;-84
2022/04/28 01:42:39;;;;;;;0.30;0.25;;;8.00;96.40;;;;;;5108993;28;20206;-83
2022/04/28 01:45:07;;;;;;;0.30;0.17;;;8.10;96.40;;;;;;5109340;28;20213;-84
2022/04/28 01:47:34;;;;;;;0.73;0.73;;;8.10;96.30;;;;;;5109039;28;20317;-84
2022/04/28 01:50:01;;;;;;;0.57;0.57;;;8.10;96.30;;;;;;5109723;28;20202;-84
2022/04/28 01:55:14;;;;;;;0.30;0.20;;;8.10;96.50;;;;;;5109187;28;20251;-83
2022/04/28 01:57:41;;;;;;;2.05;1.85;;;8.00;96.70;;;;;;5108554;28;20262;-84
2022/04/28 02:00:10;;;;;;;0.52;0.40;;;8.00;96.90;;;;;;5109715;28;20201;-84
2022/04/28 02:02:37;;;;;;;0.60;0.30;;;8.00;97.00;;;;;;5108779;28;20197;-82
2022/04/28 02:05:04;;;;;;;0.68;0.68;;;7.90;96.80;;;;;;5108764;28;20194;-83
2022/04/28 02:07:31;;;;;;;0.30;0.30;;;7.80;97.00;;;;;;5107855;28;20198;-82
2022/04/28 02:09:59;;;;;;;0.65;0.60;;;7.70;96.90;;;;;;5109057;28;20255;-85
2022/04/28 02:12:28;;;;;;;0.30;0.20;;;7.70;97.00;;;;;;5108833;28;20246;-84
2022/04/28 02:14:55;;;;;;;0.30;0.20;;;7.60;97.60;;;;;;5108742;28;20229;-83
2022/04/28 02:17:23;;;;;;;0.95;0.40;;;7.50;98.10;;;;;;5107930;28;20194;-83
2022/04/28 02:19:51;;;;;;;0.40;0.40;;;7.50;98.50;;;;;;5108784;28;20202;-83
2022/04/28 02:22:18;;;;;;;0.63;0.63;;;7.40;98.90;;;;;;5108933;28;20691;-84
2022/04/28 02:24:47;;;;;;;0.85;0.85;;;7.20;98.90;;;;;;5108300;28;20205;-84
2022/04/28 02:27:15;;;;;;;0.30;0.20;;;7.30;99.10;;;;;;5108393;28;20201;-83
2022/04/28 02:29:43;;;;;;;0.30;0.10;;;7.30;99.30;;;;;;5107092;28;20274;-83
2022/04/28 02:32:10;;;;;;;0.30;0.20;;;7.20;99.70;;;;;;5108931;28;20198;-84
2022/04/28 02:34:36;;;;;;;1.67;0.50;;;7.20;99.90;;;;;;5109021;28;20218;-83
2022/04/28 02:37:04;;;;;;;0.30;0.20;;;7.10;99.90;;;;;;5106880;28;20277;-83
2022/04/28 02:39:32;;;;;;;0.80;0.43;;;7.10;99.50;;;;;;5108384;28;20243;-82
2022/04/28 02:41:59;;;;;;;0.38;0.38;;;7.10;99.80;;;;;;5108562;28;20209;-84
2022/04/28 02:44:26;;;;;;;0.30;0.20;;;6.90;99.90;;;;;;5108879;28;20246;-84
2022/04/28 02:46:54;;;;;;;0.30;0.20;;;6.90;99.90;;;;;;5107297;28;20204;-83
2022/04/28 02:49:21;;;;;;;0.52;0.40;;;6.80;99.90;;;;;;5108830;28;20198;-83
2022/04/28 02:51:48;;;;;;;0.30;0.30;;;6.80;99.90;;;;;;5107759;28;20271;-82
2022/04/28 02:54:15;;;;;;;0.30;0.10;;;6.70;99.90;;;;;;5107922;28;20731;-82
2022/04/28 02:56:42;;;;;;;0.65;0.30;;;6.70;99.90;;;;;;5107485;28;20218;-83
2022/04/28 02:59:09;;;;;;;0.65;0.52;;;6.60;99.90;;;;;;5108633;28;20298;-83
2022/04/28 03:01:36;;;;;;;0.47;0.40;;;6.60;99.90;;;;;;5107884;28;20265;-83
2022/04/28 03:04:04;;;;;;;0.90;0.90;;;6.50;99.90;;;;;;5107952;28;20229;-83
2022/04/28 03:12:00;;;;;;;0.30;0.30;;;6.30;99.90;;;;;;5108179;28;20190;-83
2022/04/28 03:14:27;;;;;;;0.30;0.22;;;6.20;99.90;;;;;;5107837;28;20256;-83
2022/04/28 03:16:53;;;;;;;0.63;0.63;;;6.20;99.90;;;;;;5106679;28;20197;-83
2022/04/28 03:19:22;;;;;;;0.30;0.20;;;6.20;99.90;;;;;;5108276;28;20528;-84
2022/04/28 03:21:49;;;;;;;0.40;0.30;;;6.00;99.90;;;;;;5107717;28;20280;-83
2022/04/28 03:24:15;;;;;;;0.55;0.55;;;5.90;99.90;;;;;;5111206;28;20201;-82
2022/04/28 03:26:42;;;;;;;0.30;0.20;;;5.80;99.90;;;;;;5107024;28;20208;-82
2022/04/28 03:29:09;;;;;;;0.30;0.20;;;5.80;99.90;;;;;;5105979;28;20298;-83
2022/04/28 03:31:36;;;;;;;0.50;0.50;;;5.90;99.90;;;;;;5107129;28;20198;-83
2022/04/28 03:34:03;;;;;;;0.30;0.20;;;5.90;99.90;;;;;;5108383;28;20327;-83
2022/04/28 03:39:15;;;;;;;0.55;0.55;;;5.90;99.90;;;;;;5107787;28;20728;-84
2022/04/28 03:41:42;;;;;;;0.50;0.47;;;5.90;99.90;;;;;;5106629;28;20258;-83
2022/04/28 03:44:09;;;;;;;0.30;0.28;;;5.90;99.90;;;;;;5107473;28;20731;-83
2022/04/28 03:46:37;;;;;;;0.30;0.20;;;5.90;99.90;;;;;;5106637;28;20292;-82
2022/04/28 03:49:04;;;;;;;0.30;0.20;;;5.80;99.90;;;;;;5108132;28;20233;-83
2022/04/28 03:51:32;;;;;;;0.30;0.20;;;5.80;99.90;;;;;;5109564;28;20296;-83
2022/04/28 03:54:00;;;;;;;1.77;1.67;;;5.70;99.90;;;;;;5111645;28;20218;-82
2022/04/28 03:56:29;;;;;;;0.30;0.20;;;5.80;99.90;;;;;;5110693;28;20757;-83
2022/04/28 03:58:56;;;;;;;0.57;0.40;;;5.70;99.90;;;;;;5111891;28;20592;-82
2022/04/28 04:01:24;;;;;;;0.30;0.20;;;5.70;99.90;;;;;;5111554;28;20225;-83
2022/04/28 04:03:51;;;;;;;0.40;0.32;;;5.70;99.90;;;;;;5111855;28;20206;-82
2022/04/28 04:06:18;;;;;;;1.52;1.27;;;5.60;99.90;;;;;;5110543;28;20620;-82
2022/04/28 04:08:46;;;;;;;0.98;0.98;;;5.60;99.90;;;;;;5110223;28;20217;-83
2022/04/28 04:11:13;;;;;;;0.30;0.20;;;5.60;99.90;;;;;;5111859;28;20198;-82
2022/04/28 04:13:40;;;;;;;0.40;0.40;;;5.50;99.90;;;;;;5111574;28;20260;-83
2022/04/28 04:16:07;;;;;;;0.68;0.40;;;5.50;99.90;;;;;;5110508;28;20228;-83
2022/04/28 04:18:34;;;;;;;0.30;0.10;;;5.50;99.90;;;;;;5110934;28;20212;-82
2022/04/28 04:21:01;;;;;;;0.30;0.20;;;5.40;99.90;;;;;;5111214;28;20194;-82
2022/04/28 04:23:28;;;;;;;0.40;0.40;;;5.60;99.90;;;;;;5110234;28;20509;-83
2022/04/28 04:25:57;;;;;;;0.30;0.20;;;5.40;99.90;;;;;;5110790;28;20270;-82
2022/04/28 04:28:24;;;;;;;0.50;0.30;;;5.40;99.90;;;;;;5106287;28;20205;-82
2022/04/28 04:33:36;;;;;;;0.70;0.45;;;5.40;99.90;;;;;;5106665;28;20228;-82
2022/04/28 04:36:04;;;;;;;0.30;0.20;;;5.40;99.90;;;;;;5110685;28;20205;-83
2022/04/28 04:38:31;;;;;;;1.45;1.13;;;5.40;99.90;;;;;;5111078;28;20452;-82
2022/04/28 04:40:59;;;;;;;0.40;0.40;;;5.50;99.90;;;;;;5110640;28;20538;-82
2022/04/28 04:43:26;;;;;;;0.30;0.20;;;5.40;99.90;;;;;;5090636;28;20240;-82
2022/04/28 04:45:53;;;;;;;0.30;0.20;;;5.50;99.90;;;;;;5094225;28;20677;-82
2022/04/28 04:48:21;;;;;;;0.45;0.32;;;5.50;99.90;;;;;;5110059;28;20266;-82
2022/04/28 04:50:49;;;;;;;0.50;0.45;;;5.50;99.90;;;;;;5111092;28;20225;-82
2022/04/28 04:53:16;;;;;;;0.30;0.10;;;5.50;99.90;;;;;;5110849;28;20252;-83
2022/04/28 04:55:43;;;;;;;1.27;1.13;;;5.60;99.90;;;;;;5109864;28;20254;-83
2022/04/28 04:58:11;;;;;;;0.30;0.20;;;5.60;99.90;;;;;;5110753;28;20219;-82
2022/04/28 05:00:38;;;;;;;0.30;0.20;;;5.50;99.90;;;;;;5110429;28;20668;-82
2022/04/28 05:03:04;;;;;;;0.40;0.30;;;5.70;99.90;;;;;;5109355;28;20729;-83
2022/04/28 05:05:31;;;;;;;0.95;0.68;;;5.70;99.90;;;;;;5109959;28;20198;-82
2022/04/28 05:07:58;;;;;;;0.40;0.30;;;4.30;99.90;;;;;;5109686;28;20579;-82
2022/04/28 05:10:25;;;;;;;0.30;0.20;;;5.80;99.90;;;;;;5110631;28;20223;-82
2022/04/28 05:12:52;;;;;;;0.88;0.40;;;5.90;99.90;;;;;;5109829;28;20668;-82
2022/04/28 05:15:21;;;;;;;0.85;0.85;;;6.00;99.90;;;;;;5109588;28;20686;-82
2022/04/28 05:17:47;;;;;;;0.60;0.50;;;6.00;99.90;;;;;;5109013;28;20198;-82
2022/04/28 05:20:14;;;;;;;0.60;0.40;;;6.10;99.90;;;;;;5110825;28;20202;-82
2022/04/28 05:22:41;;;;;;;3.75;1.27;;;6.20;99.90;;;;;;5109920;28;20202;-82
2022/04/28 05:25:09;;;;;;;0.30;0.10;;;6.20;99.90;;;;;;5109680;28;20266;-82
2022/04/28 05:27:36;;;;;;;0.30;0.20;;;6.30;99.90;;;;;;5110292;28;20239;-82
2022/04/28 05:30:03;;;;;;;0.30;0.20;;;6.40;99.90;;;;;;5110761;28;20233;-82
2022/04/28 05:32:31;;;;;;;0.40;0.40;;;6.50;99.90;;;;;;5109629;28;20198;-82
2022/04/28 05:34:58;;;;;;;1.25;1.13;;;6.50;99.90;;;;;;5111063;28;20310;-82
2022/04/28 05:37:25;;;;;;;0.30;0.22;;;6.70;99.90;;;;;;5109751;28;20258;-82
2022/04/28 05:39:52;;;;;;;0.60;0.30;;;6.80;99.90;;;;;;5110516;28;20247;-82
2022/04/28 05:42:20;;;;;;;0.40;0.35;;;6.80;99.90;;;;;;5110613;28;20202;-83
2022/04/28 05:47:32;;;;;;;0.85;0.85;;;7.00;99.90;;;;;;5110389;28;20197;-82
2022/04/28 05:49:59;;;;;;;0.30;0.20;;;7.10;99.90;;;;;;5110626;28;20255;-82
2022/04/28 05:52:26;;;;;;;0.40;0.35;;;7.20;99.90;;;;;;5110667;28;20201;-83
2022/04/28 05:54:53;;;;;;;0.40;0.30;;;7.30;99.90;;;;;;5109664;28;20313;-82
2022/04/28 05:57:20;;;;;;;0.30;0.25;;;7.50;99.90;;;;;;5108611;28;20764;-82
2022/04/28 05:59:47;;;;;;;0.40;0.40;;;7.60;99.90;;;;;;5110647;28;20759;-83
2022/04/28 06:02:13;;;;;;;0.75;0.73;;;7.70;99.90;;;;;;5110904;28;20251;-83
2022/04/28 06:04:42;;;;;;;1.05;0.60;;;7.80;99.90;;;;;;5111352;28;20202;-82
2022/04/28 06:07:10;;;;;;;0.40;0.30;;;8.20;99.90;;;;;;5110840;28;20276;-84
2022/04/28 06:09:36;;;;;;;0.85;0.60;;;8.30;99.90;;;;;;5110570;28;20205;-82
2022/04/28 06:12:04;;;;;;;1.40;1.30;;;8.60;99.90;;;;;;5106668;28;20227;-83
2022/04/28 06:14:31;;;;;;;1.67;1.58;;;8.80;99.90;;;;;;5091516;28;20281;-84
2022/04/28 06:16:58;;;;;;;0.55;0.40;;;8.90;99.30;;;;;;5111008;28;20194;-83
2022/04/28 06:19:25;;;;;;;1.23;0.80;;;9.10;98.90;;;;;;5110284;28;20259;-82
2022/04/28 06:21:54;;;;;;;0.55;0.52;;;9.20;98.40;;;;;;5110491;28;20182;-84
2022/04/28 06:24:21;;;;;;;0.57;0.57;;;9.40;98.00;;;;;;5109442;28;20742;-83
2022/04/28 06:26:47;;;;;;;0.30;0.20;;;9.50;97.80;;;;;;5109962;28;20492;-84
2022/04/28 06:29:14;;;;;;;1.80;0.77;;;9.60;96.90;;;;;;5096134;28;20186;-83
2022/04/28 06:31:41;;;;;;;0.73;0.70;;;9.80;96.60;;;;;;5100311;28;20631;-83
2022/04/28 06:34:08;;;;;;;0.50;0.43;;;9.90;96.50;;;;;;5108908;28;20353;-84
2022/04/28 06:36:35;;;;;;;0.30;0.23;;;10.10;95.10;;;;;;5108768;28;20704;-84
2022/04/28 06:39:03;;;;;;;0.37;0.20;;;10.20;94.80;;;;;;5093596;28;21239;-83
2022/04/28 06:41:30;;;;;;;0.53;0.40;;;10.40;94.90;;;;;;5106071;28;20672;-84
2022/04/28 06:43:57;;;;;;;0.30;0.17;;;10.50;93.90;;;;;;5110131;28;20651;-84
2022/04/28 06:46:24;;;;;;;0.30;0.10;;;10.70;93.10;;;;;;5108546;28;20712;-84
2022/04/28 06:48:51;;;;;;;1.00;0.87;;;10.80;92.80;;;;;;5109666;28;20673;-85
2022/04/28 06:51:18;;;;;;;0.60;0.60;;;10.80;93.00;;;;;;5108498;28;20652;-83
2022/04/28 06:53:45;;;;;;;1.90;1.40;;;11.00;91.90;;;;;;5109466;28;21230;-83
2022/04/28 06:56:14;;;;;;;0.97;0.77;;;11.20;91.90;;;;;;5102521;28;21018;-86
2022/04/28 06:58:40;;;;;;;0.97;0.83;;;11.30;91.60;;;;;;5109578;28;20668;-83
2022/04/28 07:01:07;;;;;;;0.63;0.50;;;11.40;91.20;;;;;;5109747;28;20695;-83
2022/04/28 07:03:34;;;;;;;0.43;0.40;;;11.50;90.30;;;;;;5108464;28;20677;-84
2022/04/28 07:06:01;;;;;;;0.60;0.50;;;11.80;90.40;;;;;;5107984;28;20618;-84
2022/04/28 07:08:30;;;;;;;9.80;1.20;;;11.80;90.50;;;;;;5107915;28;20691;-83
2022/04/28 07:10:58;;;;;;;0.70;0.70;;;11.90;89.70;;;;;;5108946;28;20634;-84
2022/04/28 07:13:26;;;;;;;0.40;0.40;;;11.90;89.70;;;;;;5108746;28;20653;-84
2022/04/28 07:15:53;;;;;;;0.60;0.43;;;12.10;87.30;;;;;;5107516;28;20704;-84
2022/04/28 07:18:20;;;;;;;1.37;0.50;;;12.20;88.70;;;;;;5108145;28;20635;-82
2022/04/28 07:20:47;;;;;;;0.60;0.50;;;12.30;87.10;;;;;;5108420;28;21451;-86
2022/04/28 07:23:16;;;;;;;0.60;0.47;;;12.30;87.20;;;;;;5109547;28;20619;-83
2022/04/28 07:25:42;;;;;;;0.87;0.53;;;12.40;85.80;;;;;;5110681;28;20682;-86
2022/04/28 07:28:09;;;;;;;0.60;0.47;;;12.60;87.00;;;;;;5113327;28;21052;-84
2022/04/28 07:30:38;;;;;;;0.77;0.77;;;12.60;84.90;;;;;;5113091;28;20615;-85
2022/04/28 07:33:05;;;;;;;0.83;0.77;;;12.80;84.40;;;;;;5111672;28;20675;-83
2022/04/28 07:35:32;;;;;;;0.50;0.40;;;12.80;84.80;;;;;;5112330;28;20662;-83
2022/04/28 07:37:59;;;;;;;0.40;0.40;;;13.00;86.20;;;;;;5113032;28;20629;-84
2022/04/28 07:40:26;;;;;;;0.33;0.33;;;13.10;83.40;;;;;;5113117;28;20680;-85
2022/04/28 07:42:53;;;;;;;0.70;0.50;;;13.10;84.40;;;;;;5107877;28;20701;-83
2022/04/28 07:45:20;;;;;;;0.73;0.73;;;13.10;84.50;;;;;;5092000;28;20621;-83
2022/04/28 07:47:49;;;;;;;0.63;0.63;;;13.10;82.80;;;;;;5107490;28;20635;-85
2022/04/28 07:50:16;;;;;;;0.70;0.53;;;13.20;82.70;;;;;;5092631;28;20624;-85
2022/04/28 07:52:44;;;;;;;0.30;0.30;;;13.30;81.70;;;;;;5108145;28;20639;-84
2022/04/28 07:55:11;;;;;;;1.47;1.37;;;13.30;80.50;;;;;;5114119;27;20666;-84
2022/04/28 07:57:38;;;;;;;0.73;0.73;;;13.40;81.20;;;;;;5111887;28;20662;-84
2022/04/28 08:00:07;;;;;;;1.20;1.07;;;13.60;80.90;;;;;;5112159;28;20677;-83
2022/04/28 08:02:36;;;;;;;0.80;0.67;;;13.60;81.40;;;;;;5111546;28;20644;-83
2022/04/28 08:05:05;;;;;;;0.63;0.63;;;13.80;81.30;;;;;;5112318;28;20725;-83
2022/04/28 08:07:32;;;;;;;1.50;0.80;;;13.90;78.40;;;;;;5111755;28;20625;-84
2022/04/28 08:09:59;;;;;;;1.70;1.50;;;13.90;78.00;;;;;;5112980;28;20949;-84
2022/04/28 08:12:27;;;;;;;1.40;1.33;;;14.00;76.80;;;;;;5111519;28;20629;-84
2022/04/28 08:14:53;;;;;;;0.67;0.40;;;14.10;74.20;;;;;;5111896;28;20669;-86
2022/04/28 08:17:21;;;;;;;0.40;0.40;;;14.10;73.30;;;;;;5111559;28;20646;-83
2022/04/28 08:19:48;;;;;;;0.30;0.30;;;14.20;73.10;;;;;;5111871;28;21195;-84
2022/04/28 08:22:16;;;;;;;0.97;0.73;;;14.30;73.30;;;;;;5111980;28;20621;-83
2022/04/28 08:24:43;;;;;;;0.53;0.53;;;14.30;72.90;;;;;;5112106;28;20708;-85
2022/04/28 08:27:10;;;;;;;0.40;0.30;;;14.50;71.70;;;;;;5110848;28;20622;-84
2022/04/28 08:29:37;;;;;;;0.93;0.83;;;14.60;72.20;;;;;;5112202;28;20753;-83
2022/04/28 08:32:05;;;;;;;1.10;1.00;;;14.60;67.70;;;;;;5110852;28;20664;-84
2022/04/28 08:34:32;;;;;;;0.90;0.90;;;14.50;69.40;;;;;;5111763;28;20646;-84
2022/04/28 08:36:58;;;;;;;1.07;0.77;;;14.60;66.50;;;;;;5105119;28;21267;-83
2022/04/28 08:39:27;;;;;;;2.13;0.90;;;14.60;67.70;;;;;;5091816;28;21023;-83
2022/04/28 08:41:55;;;;;;;0.50;0.40;;;14.70;67.00;;;;;;5111385;28;20647;-85
2022/04/28 08:44:23;;;;;;;0.40;0.40;;;14.80;65.80;;;;;;5111807;28;20958;-84
2022/04/28 08:46:53;;;;;;;0.50;0.30;;;14.90;68.80;;;;;;5110955;28;21038;-84
2022/04/28 08:49:22;;;;;;;1.50;0.47;;;15.00;65.90;;;;;;5111886;28;20623;-85
2022/04/28 08:51:51;;;;;;;0.63;0.50;;;15.10;67.30;;;;;;5111217;28;20647;-84
2022/04/28 08:54:18;;;;;;;1.07;1.00;;;15.10;68.80;;;;;;5090658;28;20612;-85
2022/04/28 08:56:47;;;;;;;1.30;0.70;;;15.30;66.30;;;;;;5091177;28;21301;-84
2022/04/28 08:59:14;;;;;;;0.30;0.20;;;15.30;63.50;;;;;;5091339;28;20639;-84
2022/04/28 09:01:41;;;;;;;1.07;0.60;;;15.50;65.00;;;;;;5094227;28;20619;-84
2022/04/28 09:04:10;;;;;;;0.40;0.30;;;15.50;64.30;;;;;;5111704;28;20662;-84
2022/04/28 09:06:38;;;;;;;0.70;0.70;;;15.60;61.70;;;;;;5105085;28;20634;-83
2022/04/28 09:09:07;;;;;;;0.30;0.20;;;15.60;61.30;;;;;;5111162;28;20655;-85
2022/04/28 09:11:37;;;;;;;0.80;0.50;;;15.60;61.10;;;;;;5111236;28;20623;-84
2022/04/28 09:14:13;;;;;;;1.70;0.30;;;15.60;63.00;;;;;;5111405;28;20630;-86
2022/04/28 09:16:43;;;;;;;1.10;0.90;;;15.70;61.00;;;;;;5108226;28;20627;-84
2022/04/28 09:19:11;;;;;;;0.60;0.20;;;15.80;58.90;;;;;;5110488;28;20711;-84
2022/04/28 09:21:39;;;;;;;0.57;0.50;;;16.00;59.60;;;;;;5110408;28;20727;-84
2022/04/28 09:24:09;;;;;;;0.93;0.50;;;16.00;60.40;;;;;;5110721;28;20688;-83
2022/04/28 09:26:37;;;;;;;0.83;0.53;;;16.20;59.10;;;;;;5109599;28;20711;-85
2022/04/28 09:29:06;;;;;;;1.30;0.60;;;16.20;58.70;;;;;;5093319;28;20621;-86
2022/04/28 09:31:37;;;;;;;1.90;0.70;;;16.20;57.70;;;;;;5103072;28;20619;-85
2022/04/28 09:34:08;;;;;;;2.00;0.87;;;16.40;56.60;;;;;;5107781;28;20620;-85
2022/04/28 09:36:35;;;;;;;0.93;0.60;;;16.40;57.40;;;;;;5110159;28;21250;-84
2022/04/28 09:39:02;;;;;;;0.60;0.60;;;16.40;55.80;;;;;;5110824;28;20714;-84
2022/04/28 09:44:16;;;;;;;0.60;0.60;;;16.60;54.90;;;;;;5109497;28;20615;-84
2022/04/28 09:46:44;;;;;;;0.60;0.60;;;16.70;54.10;;;;;;5109221;28;20685;-86
2022/04/28 09:49:12;;;;;;;0.60;0.60;;;16.70;54.90;;;;;;5109245;28;21229;-86
2022/04/28 09:51:40;;;;;;;0.40;0.30;;;16.70;54.70;;;;;;5108317;28;20662;-85
2022/04/28 09:54:10;;;;;;;1.53;0.73;;;16.80;51.90;;;;;;5110679;28;20619;-86
2022/04/28 09:56:38;;;;;;;1.17;1.07;;;16.80;53.70;;;;;;5108672;28;20722;-85
2022/04/28 09:59:09;;;;;;;1.00;0.80;;;16.90;54.20;;;;;;5109789;28;21197;-85
2022/04/28 10:01:38;;;;;;;0.40;0.40;;;17.10;55.40;;;;;;5109790;28;21082;-86
2022/04/28 10:04:06;;;;;;;0.80;0.50;;;17.10;55.40;;;;;;5110101;28;21253;-85
2022/04/28 10:06:35;;;;;;;0.60;0.60;;;17.20;55.10;;;;;;5100327;27;20957;-84
2022/04/28 10:09:06;;;;;;;0.40;0.40;;;17.30;54.30;;;;;;5109010;28;20624;-84
2022/04/28 10:11:33;;;;;;;0.30;0.20;;;17.30;55.00;;;;;;5108445;28;21227;-85
2022/04/28 10:14:03;;;;;;;0.60;0.60;;;17.30;53.10;;;;;;5109286;28;20627;-84
2022/04/28 10:16:30;;;;;;;0.70;0.70;;;17.40;54.10;;;;;;5104312;28;20979;-83
2022/04/28 10:19:03;;;;;;;1.33;1.03;;;17.60;54.70;;;;;;5110028;28;20962;-85
2022/04/28 10:21:35;;;;;;;1.47;0.80;;;17.90;52.80;;;;;;5107828;28;20707;-84
2022/04/28 10:32:54;;;;;;;0.60;0.60;;;17.80;53.80;;;;;;5106734;28;21053;-84
2022/04/28 10:35:41;;;;;;;0.80;0.80;;;17.90;53.60;;;;;;5107867;28;20723;-85
2022/04/28 10:38:14;;;;;;;0.70;0.70;;;17.90;54.60;;;;;;5108683;28;20600;-85
2022/04/28 10:40:43;;;;;;;0.60;0.60;;;18.10;54.40;;;;;;5108616;28;20623;-84
2022/04/28 10:43:22;;;;;;;1.13;1.03;;;18.20;53.60;;;;;;5109030;28;20627;-85
2022/04/28 10:45:50;;;;;;;0.40;0.30;;;18.30;53.50;;;;;;5108384;28;20630;-85
2022/04/28 10:48:26;;;;;;;0.50;0.50;;;18.50;53.30;;;;;;5108891;28;20624;-86
2022/04/28 10:51:10;;;;;;;0.87;0.87;;;18.60;53.20;;;;;;5108653;28;20619;-87
2022/04/28 10:53:55;;;;;;;0.90;0.90;;;18.60;52.30;;;;;;5109292;28;20623;-85
2022/04/28 10:56:23;;;;;;;0.50;0.40;;;18.80;51.90;;;;;;5108542;28;20763;-84
2022/04/28 10:58:50;;;;;;;0.40;0.40;;;18.80;50.50;;;;;;5109154;28;20603;-85
2022/04/28 11:01:26;;;;;;;0.53;0.53;;;18.80;51.20;;;;;;5099976;28;20616;-85
2022/04/28 11:03:55;;;;;;;0.70;0.70;;;18.80;50.40;;;;;;5094864;27;21029;-86
2022/04/28 11:06:27;;;;;;;1.33;1.23;;;19.00;51.20;;;;;;5105844;28;20723;-85
2022/04/28 11:08:55;;;;;;;0.80;0.80;;;19.30;49.70;;;;;;5108767;28;20654;-86
2022/04/28 11:11:28;;;;;;;0.83;0.60;;;19.20;49.00;;;;;;5108201;28;20635;-85
2022/04/28 11:13:58;;;;;;;0.53;0.53;;;19.20;49.20;;;;;;5107678;28;20627;-84
2022/04/28 11:16:26;;;;;;;0.67;0.67;;;19.40;50.30;;;;;;5105773;28;20655;-84
2022/04/28 11:18:53;;;;;;;0.47;0.47;;;19.30;47.60;;;;;;5107406;28;20988;-84
2022/04/28 11:21:21;;;;;;;1.87;0.70;;;19.60;48.80;;;;;;5089511;28;20997;-86
2022/04/28 11:23:51;;;;;;;0.60;0.60;;;19.70;48.70;;;;;;5088118;28;21251;-87
2022/04/28 11:26:19;;;;;;;0.60;0.60;;;20.10;48.00;;;;;;5098825;28;20676;-86
2022/04/28 11:28:47;;;;;;;0.30;0.27;;;20.40;49.60;;;;;;5107715;28;21011;-85
2022/04/28 11:31:16;;;;;;;0.70;0.70;;;20.60;48.00;;;;;;5108459;28;20631;-84
2022/04/28 11:33:45;;;;;;;0.87;0.87;;;20.80;47.90;;;;;;5107048;28;20620;-86
2022/04/28 11:36:21;;;;;;;0.80;0.70;;;21.10;45.90;;;;;;5107590;28;20764;-85
2022/04/28 11:38:51;;;;;;;0.40;0.40;;;21.00;46.90;;;;;;5107709;28;21257;-85
2022/04/28 11:41:24;;;;;;;0.70;0.70;;;21.20;47.10;;;;;;5105261;28;20676;-86
2022/04/28 11:43:51;;;;;;;1.30;0.93;;;21.40;47.10;;;;;;5108148;28;20623;-85
2022/04/28 11:46:19;;;;;;;0.50;0.40;;;21.80;46.90;;;;;;5107018;28;20630;-84
2022/04/28 11:48:52;;;;;;;1.30;1.07;;;22.40;46.70;;;;;;5107770;28;21197;-84
2022/04/28 11:51:23;;;;;;;0.60;0.60;;;22.70;46.40;;;;;;5107667;28;21097;-84
2022/04/28 11:53:53;;;;;;;0.90;0.80;;;23.00;47.20;;;;;;5108093;28;20706;-86
2022/04/28 11:56:21;;;;;;;0.80;0.80;;;23.70;45.70;;;;;;5106956;28;20656;-86
2022/04/28 11:58:50;;;;;;;0.77;0.77;;;24.10;44.70;;;;;;5107961;28;20664;-85
2022/04/28 12:01:19;;;;;;;0.73;0.73;;;24.70;45.70;;;;;;5107603;28;20636;-84
2022/04/28 12:03:51;;;;;;;0.73;0.70;;;25.50;43.30;;;;;;5103792;28;20635;-85
2022/04/28 12:06:19;;;;;;;1.10;1.00;;;26.30;42.80;;;;;;5096822;28;20615;-85
2022/04/28 12:08:55;;;;;;;1.00;1.00;;;26.50;41.20;;;;;;5107326;28;20636;-88
2022/04/28 12:14:25;;;;;;;0.50;0.50;;;28.10;38.40;;;;;;5111499;28;21024;-85
2022/04/28 12:19:54;;;;;;;0.87;0.87;;;27.70;39.10;;;;;;5100151;28;20727;-83
2022/04/28 12:22:29;;;;;;;0.90;0.90;;;27.90;38.70;;;;;;5108526;28;20999;-83
2022/04/28 12:25:02;;;;;;;0.80;0.80;;;27.90;37.70;;;;;;5111509;28;20618;-84
2022/04/28 12:27:41;;;;;;;0.83;0.83;;;28.90;37.80;;;;;;5111087;28;20619;-83
2022/04/28 12:30:10;;;;;;;1.00;0.90;;;28.60;37.90;;;;;;5111409;28;21201;-83
2022/04/28 12:32:49;;;;;;;0.97;0.90;;;28.60;37.90;;;;;;5109534;28;21040;-83
2022/04/28 12:35:28;;;;;;;1.07;1.07;;;29.40;36.40;;;;;;5110644;28;20659;-84
2022/04/28 12:38:00;;;;;;;1.13;1.03;;;29.90;34.60;;;;;;5111529;28;20631;-84
2022/04/28 12:40:38;;;;;;;1.03;0.70;;;29.70;34.40;;;;;;5108552;28;20937;-83
2022/04/28 12:43:05;;;;;;;0.80;0.80;;;29.40;35.40;;;;;;5099439;28;20647;-83
2022/04/28 12:45:50;;;;;;;1.23;1.00;;;29.60;34.90;;;;;;5109789;28;20674;-83
2022/04/28 12:48:30;;;;;;;0.80;0.80;;;29.70;34.60;;;;;;5110745;28;20623;-83
2022/04/28 12:51:11;;;;;;;1.47;1.37;;;29.80;34.00;;;;;;5111507;28;20612;-84
2022/04/28 12:53:38;;;;;;;0.87;0.83;;;30.40;33.10;;;;;;5091308;28;20971;-83
2022/04/28 12:56:08;;;;;;;0.80;0.80;;;30.40;33.20;;;;;;5106715;28;21307;-85
2022/04/28 12:58:40;;;;;;;1.40;1.30;;;30.30;33.30;;;;;;5109802;28;20693;-84
2022/04/28 13:01:10;;;;;;;1.00;1.00;;;30.90;32.40;;;;;;5109969;28;20964;-83
2022/04/28 13:03:38;;;;;;;1.03;0.93;;;30.10;33.60;;;;;;5110026;28;20718;-83
2022/04/28 13:06:06;;;;;;;1.00;0.90;;;30.00;35.30;;;;;;5101865;28;20790;-84
2022/04/28 13:08:33;;;;;;;0.77;0.77;;;30.00;34.70;;;;;;5109083;28;20631;-83
2022/04/28 13:11:01;;;;;;;0.83;0.80;;;30.40;33.70;;;;;;5110356;28;21153;-83
2022/04/28 13:13:29;;;;;;;1.13;1.13;;;31.00;31.70;;;;;;5110553;28;20623;-84
2022/04/28 13:15:56;;;;;;;1.20;1.10;;;30.80;31.50;;;;;;5102019;28;20678;-84
2022/04/28 13:18:23;;;;;;;1.07;1.00;;;31.00;31.90;;;;;;5108895;28;20630;-83
2022/04/28 13:20:50;;;;;;;1.03;1.03;;;30.40;32.70;;;;;;5109354;28;20628;-84
2022/04/28 13:23:17;;;;;;;1.20;1.10;;;30.40;32.80;;;;;;5110380;28;20631;-83
2022/04/28 13:25:44;;;;;;;0.90;0.90;;;30.60;32.30;;;;;;5090432;28;20685;-84
2022/04/28 13:28:11;;;;;;;1.13;1.10;;;29.80;32.40;;;;;;5101338;28;21009;-85
2022/04/28 13:30:40;;;;;;;1.30;1.30;;;29.10;33.30;;;;;;5105343;28;20646;-83
2022/04/28 13:33:08;;;;;;;0.70;0.70;;;29.50;33.50;;;;;;5108252;28;20619;-84
2022/04/28 13:35:36;;;;;;;0.97;0.83;;;30.10;32.60;;;;;;5108354;28;20627;-84